Terminal Aerodrome Forecast
Issued by NWS

Home | Current Version | Previous Version | Text Only | Print | Product List | Glossary On
Versions: 1 2 3 4 5 6 7 8 9 10 11 12 13 14
899
FTUS46 KLOX 231737
TAFVNY
TAF
KVNY 231737Z 2318/2418 VRB03KT P6SM BKN060
     FM232000 15010KT P6SM BKN100
     FM240300 VRB03KT P6SM SKC
     FM240800 VRB03KT 5SM FU SCT040=

USA.gov is the U.S. government's official web portal to all federal, state and local government web resources and services.